sensor_id;sensor_type;location;lat;lon;timestamp;pressure;altitude;pressure_sealevel;temperature;humidity
4273;BME280;63887;53.656;9.810;2022-11-15T00:01:53;101205.22;;;5.69;93.40
4273;BME280;63887;53.656;9.810;2022-11-15T00:04:20;101195.63;;;5.72;93.73
4273;BME280;63887;53.656;9.810;2022-11-15T00:06:46;101194.84;;;5.68;93.56
4273;BME280;63887;53.656;9.810;2022-11-15T00:09:13;101195.69;;;5.68;93.32
4273;BME280;63887;53.656;9.810;2022-11-15T00:11:39;101203.34;;;5.75;93.92
4273;BME280;63887;53.656;9.810;2022-11-15T00:14:06;101193.78;;;5.75;93.96
4273;BME280;63887;53.656;9.810;2022-11-15T00:16:33;101200.69;;;5.76;93.04
4273;BME280;63887;53.656;9.810;2022-11-15T00:19:00;101200.78;;;5.73;93.70
4273;BME280;63887;53.656;9.810;2022-11-15T00:21:26;101195.66;;;5.70;92.95
4273;BME280;63887;53.656;9.810;2022-11-15T00:23:53;101197.44;;;5.68;93.25
4273;BME280;63887;53.656;9.810;2022-11-15T00:26:19;101208.81;;;5.65;93.21
4273;BME280;63887;53.656;9.810;2022-11-15T00:28:46;101204.47;;;5.64;93.37
4273;BME280;63887;53.656;9.810;2022-11-15T00:31:13;101199.25;;;5.64;93.53
4273;BME280;63887;53.656;9.810;2022-11-15T00:33:43;101202.63;;;5.69;93.93
4273;BME280;63887;53.656;9.810;2022-11-15T00:36:11;101210.41;;;5.69;93.75
4273;BME280;63887;53.656;9.810;2022-11-15T00:38:39;101192.59;;;5.87;93.68
4273;BME280;63887;53.656;9.810;2022-11-15T00:41:06;101204.59;;;5.92;93.02
4273;BME280;63887;53.656;9.810;2022-11-15T00:43:33;101195.84;;;5.95;94.01
4273;BME280;63887;53.656;9.810;2022-11-15T00:46:00;101199.84;;;6.07;93.14
4273;BME280;63887;53.656;9.810;2022-11-15T00:48:27;101192.84;;;6.09;92.88
4273;BME280;63887;53.656;9.810;2022-11-15T00:50:55;101200.19;;;6.24;92.63
4273;BME280;63887;53.656;9.810;2022-11-15T00:53:21;101199.34;;;6.23;92.34
4273;BME280;63887;53.656;9.810;2022-11-15T00:55:48;101196.72;;;6.25;92.06
4273;BME280;63887;53.656;9.810;2022-11-15T00:58:14;101201.94;;;6.23;92.51
4273;BME280;63887;53.656;9.810;2022-11-15T01:00:41;101200.13;;;6.27;92.08
4273;BME280;63887;53.656;9.810;2022-11-15T01:03:07;101203.59;;;6.27;92.08
4273;BME280;63887;53.656;9.810;2022-11-15T01:05:36;101194.25;;;6.48;91.49
4273;BME280;63887;53.656;9.810;2022-11-15T01:08:04;101198.81;;;6.42;91.51
4273;BME280;63887;53.656;9.810;2022-11-15T01:10:30;101203.88;;;6.46;92.09
4273;BME280;63887;53.656;9.810;2022-11-15T01:12:57;101190.06;;;6.44;91.94
4273;BME280;63887;53.656;9.810;2022-11-15T01:15:23;101184.03;;;6.42;91.83
4273;BME280;63887;53.656;9.810;2022-11-15T01:17:50;101185.84;;;6.39;91.46
4273;BME280;63887;53.656;9.810;2022-11-15T01:20:16;101180.69;;;6.37;91.61
4273;BME280;63887;53.656;9.810;2022-11-15T01:22:44;101177.34;;;6.34;91.44
4273;BME280;63887;53.656;9.810;2022-11-15T01:25:11;101169.78;;;6.26;92.30
4273;BME280;63887;53.656;9.810;2022-11-15T01:27:38;101172.50;;;6.21;91.51
4273;BME280;63887;53.656;9.810;2022-11-15T01:30:06;101181.34;;;6.16;92.26
4273;BME280;63887;53.656;9.810;2022-11-15T01:32:33;101183.22;;;6.12;92.07
4273;BME280;63887;53.656;9.810;2022-11-15T01:34:59;101180.00;;;6.03;92.59
4273;BME280;63887;53.656;9.810;2022-11-15T01:37:26;101173.09;;;6.02;92.82
4273;BME280;63887;53.656;9.810;2022-11-15T01:39:52;101173.28;;;5.95;92.23
4273;BME280;63887;53.656;9.810;2022-11-15T01:42:20;101176.00;;;5.91;92.19
4273;BME280;63887;53.656;9.810;2022-11-15T01:44:48;101156.94;;;5.89;92.38
4273;BME280;63887;53.656;9.810;2022-11-15T01:47:16;101171.97;;;5.79;92.54
4273;BME280;63887;53.656;9.810;2022-11-15T01:49:49;101166.03;;;5.74;92.35
4273;BME280;63887;53.656;9.810;2022-11-15T01:52:20;101165.19;;;5.74;92.90
4273;BME280;63887;53.656;9.810;2022-11-15T01:54:51;101160.03;;;5.72;92.62
4273;BME280;63887;53.656;9.810;2022-11-15T01:57:20;101156.75;;;5.65;92.25
4273;BME280;63887;53.656;9.810;2022-11-15T01:59:47;101159.41;;;5.62;92.71
4273;BME280;63887;53.656;9.810;2022-11-15T02:02:14;101167.53;;;5.52;93.37
4273;BME280;63887;53.656;9.810;2022-11-15T02:04:42;101168.59;;;5.45;93.02
4273;BME280;63887;53.656;9.810;2022-11-15T02:07:11;101160.75;;;5.46;93.58
4273;BME280;63887;53.656;9.810;2022-11-15T02:09:39;101142.81;;;5.35;93.28
4273;BME280;63887;53.656;9.810;2022-11-15T02:12:07;101150.94;;;5.25;93.41
4273;BME280;63887;53.656;9.810;2022-11-15T02:14:38;101147.50;;;5.23;93.30
4273;BME280;63887;53.656;9.810;2022-11-15T02:17:14;101139.75;;;5.20;93.59
4273;BME280;63887;53.656;9.810;2022-11-15T02:20:18;101146.09;;;5.11;93.40
4273;BME280;63887;53.656;9.810;2022-11-15T02:23:06;101142.75;;;5.06;93.14
4273;BME280;63887;53.656;9.810;2022-11-15T02:25:42;101139.44;;;4.99;93.35
4273;BME280;63887;53.656;9.810;2022-11-15T02:28:28;101144.81;;;4.93;93.84
4273;BME280;63887;53.656;9.810;2022-11-15T02:31:03;101137.06;;;4.90;93.78
4273;BME280;63887;53.656;9.810;2022-11-15T02:33:37;101138.81;;;4.91;94.01
4273;BME280;63887;53.656;9.810;2022-11-15T02:36:12;101131.88;;;4.90;93.77
4273;BME280;63887;53.656;9.810;2022-11-15T02:38:45;101134.69;;;4.83;93.61
4273;BME280;63887;53.656;9.810;2022-11-15T02:41:16;101130.28;;;4.85;93.22
4273;BME280;63887;53.656;9.810;2022-11-15T02:43:47;101122.53;;;4.83;93.89
4273;BME280;63887;53.656;9.810;2022-11-15T02:46:31;101122.69;;;4.77;93.78
4273;BME280;63887;53.656;9.810;2022-11-15T02:49:17;101113.25;;;4.73;93.88
4273;BME280;63887;53.656;9.810;2022-11-15T02:51:45;101114.22;;;4.69;93.92
4273;BME280;63887;53.656;9.810;2022-11-15T02:54:15;101112.44;;;4.71;93.76
4273;BME280;63887;53.656;9.810;2022-11-15T02:56:45;101107.44;;;4.63;93.88
4273;BME280;63887;53.656;9.810;2022-11-15T02:59:33;101106.44;;;4.69;93.82
4273;BME280;63887;53.656;9.810;2022-11-15T03:02:16;101108.22;;;4.67;94.15
4273;BME280;63887;53.656;9.810;2022-11-15T03:04:53;101113.63;;;4.58;93.97
4273;BME280;63887;53.656;9.810;2022-11-15T03:07:26;101111.97;;;4.55;93.99
4273;BME280;63887;53.656;9.810;2022-11-15T03:10:00;101111.28;;;4.48;94.49
4273;BME280;63887;53.656;9.810;2022-11-15T03:12:35;101113.88;;;4.48;94.23
4273;BME280;63887;53.656;9.810;2022-11-15T03:15:06;101111.41;;;4.42;94.09
4273;BME280;63887;53.656;9.810;2022-11-15T03:17:38;101112.00;;;4.54;94.34
4273;BME280;63887;53.656;9.810;2022-11-15T03:20:08;101107.53;;;4.59;94.51
4273;BME280;63887;53.656;9.810;2022-11-15T03:22:39;101104.03;;;4.61;94.64
4273;BME280;63887;53.656;9.810;2022-11-15T03:25:10;101120.31;;;4.68;94.95
4273;BME280;63887;53.656;9.810;2022-11-15T03:27:42;101117.72;;;4.68;94.57
4273;BME280;63887;53.656;9.810;2022-11-15T03:30:13;101112.59;;;4.65;94.33
4273;BME280;63887;53.656;9.810;2022-11-15T03:32:44;101107.50;;;4.60;94.32
4273;BME280;63887;53.656;9.810;2022-11-15T03:35:14;101105.09;;;4.53;94.77
4273;BME280;63887;53.656;9.810;2022-11-15T03:37:45;101104.09;;;4.58;94.36
4273;BME280;63887;53.656;9.810;2022-11-15T03:40:15;101106.63;;;4.61;95.02
4273;BME280;63887;53.656;9.810;2022-11-15T03:42:46;101102.31;;;4.60;94.77
4273;BME280;63887;53.656;9.810;2022-11-15T03:45:17;101106.66;;;4.60;94.04
4273;BME280;63887;53.656;9.810;2022-11-15T03:47:49;101105.84;;;4.58;94.37
4273;BME280;63887;53.656;9.810;2022-11-15T03:50:19;101105.91;;;4.55;94.42
4273;BME280;63887;53.656;9.810;2022-11-15T03:52:47;101109.41;;;4.54;94.37
4273;BME280;63887;53.656;9.810;2022-11-15T03:55:17;101104.97;;;4.57;94.41
4273;BME280;63887;53.656;9.810;2022-11-15T03:57:44;101101.69;;;4.51;94.04
4273;BME280;63887;53.656;9.810;2022-11-15T04:00:11;101114.75;;;4.47;94.57
4273;BME280;63887;53.656;9.810;2022-11-15T04:02:38;101119.19;;;4.42;94.54
4273;BME280;63887;53.656;9.810;2022-11-15T04:05:06;101124.41;;;4.41;94.52
4273;BME280;63887;53.656;9.810;2022-11-15T04:07:33;101122.72;;;4.40;94.52
4273;BME280;63887;53.656;9.810;2022-11-15T04:09:59;101120.16;;;4.38;94.78
4273;BME280;63887;53.656;9.810;2022-11-15T04:12:28;101107.06;;;4.43;94.57
4273;BME280;63887;53.656;9.810;2022-11-15T04:14:59;101104.50;;;4.41;94.18
4273;BME280;63887;53.656;9.810;2022-11-15T04:17:36;101102.72;;;4.43;94.43
4273;BME280;63887;53.656;9.810;2022-11-15T04:20:06;101116.50;;;4.45;94.57
4273;BME280;63887;53.656;9.810;2022-11-15T04:22:52;101115.69;;;4.43;95.07
4273;BME280;63887;53.656;9.810;2022-11-15T04:25:37;101117.97;;;4.57;95.32
4273;BME280;63887;53.656;9.810;2022-11-15T04:28:03;101120.44;;;4.63;95.04
4273;BME280;63887;53.656;9.810;2022-11-15T04:30:30;101116.75;;;4.72;95.09
4273;BME280;63887;53.656;9.810;2022-11-15T04:32:56;101109.31;;;4.91;95.20
4273;BME280;63887;53.656;9.810;2022-11-15T04:35:24;101118.56;;;5.02;95.32
4273;BME280;63887;53.656;9.810;2022-11-15T04:37:50;101120.16;;;5.08;95.95
4273;BME280;63887;53.656;9.810;2022-11-15T04:40:16;101120.03;;;5.13;95.93
4273;BME280;63887;53.656;9.810;2022-11-15T04:42:43;101119.06;;;5.17;95.66
4273;BME280;63887;53.656;9.810;2022-11-15T04:45:10;101113.47;;;5.30;95.39
4273;BME280;63887;53.656;9.810;2022-11-15T04:47:37;101116.66;;;5.42;94.85
4273;BME280;63887;53.656;9.810;2022-11-15T04:50:04;101120.25;;;5.37;94.92
4273;BME280;63887;53.656;9.810;2022-11-15T04:52:32;101122.41;;;5.53;94.25
4273;BME280;63887;53.656;9.810;2022-11-15T04:54:58;101125.91;;;5.52;93.94
4273;BME280;63887;53.656;9.810;2022-11-15T04:57:25;101123.97;;;5.58;93.62
4273;BME280;63887;53.656;9.810;2022-11-15T04:59:51;101110.88;;;5.61;93.34
4273;BME280;63887;53.656;9.810;2022-11-15T05:02:18;101112.53;;;5.64;93.73
4273;BME280;63887;53.656;9.810;2022-11-15T05:04:44;101116.00;;;5.64;93.62
4273;BME280;63887;53.656;9.810;2022-11-15T05:07:10;101121.25;;;5.63;93.43
4273;BME280;63887;53.656;9.810;2022-11-15T05:09:37;101114.94;;;5.72;93.26
4273;BME280;63887;53.656;9.810;2022-11-15T05:12:04;101108.94;;;5.69;93.77
4273;BME280;63887;53.656;9.810;2022-11-15T05:14:31;101112.22;;;5.75;93.15
4273;BME280;63887;53.656;9.810;2022-11-15T05:16:57;101098.97;;;5.84;93.12
4273;BME280;63887;53.656;9.810;2022-11-15T05:19:24;101096.47;;;5.81;92.44
4273;BME280;63887;53.656;9.810;2022-11-15T05:21:50;101099.97;;;5.78;92.83
4273;BME280;63887;53.656;9.810;2022-11-15T05:24:17;101100.63;;;5.86;92.75
4273;BME280;63887;53.656;9.810;2022-11-15T05:26:44;101098.66;;;5.94;92.93
4273;BME280;63887;53.656;9.810;2022-11-15T05:29:11;101089.50;;;5.80;92.78
4273;BME280;63887;53.656;9.810;2022-11-15T05:31:39;101096.47;;;5.79;93.17
4273;BME280;63887;53.656;9.810;2022-11-15T05:34:07;101109.28;;;5.87;93.61
4273;BME280;63887;53.656;9.810;2022-11-15T05:36:36;101095.50;;;5.83;93.42
4273;BME280;63887;53.656;9.810;2022-11-15T05:39:04;101090.94;;;5.91;93.25
4273;BME280;63887;53.656;9.810;2022-11-15T05:41:34;101093.50;;;5.93;93.29
4273;BME280;63887;53.656;9.810;2022-11-15T05:44:05;101098.59;;;5.97;93.35
4273;BME280;63887;53.656;9.810;2022-11-15T05:46:34;101094.97;;;6.02;93.77
4273;BME280;63887;53.656;9.810;2022-11-15T05:49:01;101094.94;;;6.03;93.55
4273;BME280;63887;53.656;9.810;2022-11-15T05:51:28;101101.75;;;6.07;92.53
4273;BME280;63887;53.656;9.810;2022-11-15T05:53:56;101101.56;;;6.13;93.09
4273;BME280;63887;53.656;9.810;2022-11-15T05:56:24;101100.84;;;6.08;92.95
4273;BME280;63887;53.656;9.810;2022-11-15T05:58:52;101103.38;;;6.11;92.60
4273;BME280;63887;53.656;9.810;2022-11-15T06:01:20;101099.03;;;6.12;92.83
4273;BME280;63887;53.656;9.810;2022-11-15T06:03:47;101093.72;;;6.15;92.67
4273;BME280;63887;53.656;9.810;2022-11-15T06:06:13;101095.25;;;6.20;93.44
4273;BME280;63887;53.656;9.810;2022-11-15T06:08:40;101099.47;;;6.24;93.37
4273;BME280;63887;53.656;9.810;2022-11-15T06:11:06;101105.56;;;6.23;93.57
4273;BME280;63887;53.656;9.810;2022-11-15T06:13:33;101095.72;;;6.33;92.67
4273;BME280;63887;53.656;9.810;2022-11-15T06:16:00;101102.53;;;6.37;93.08
4273;BME280;63887;53.656;9.810;2022-11-15T06:18:31;101102.22;;;6.48;92.45
4273;BME280;63887;53.656;9.810;2022-11-15T06:20:58;101098.53;;;6.53;92.53
4273;BME280;63887;53.656;9.810;2022-11-15T06:23:25;101100.97;;;6.60;92.23
4273;BME280;63887;53.656;9.810;2022-11-15T06:25:52;101101.91;;;6.57;91.77
4273;BME280;63887;53.656;9.810;2022-11-15T06:28:18;101104.53;;;6.57;92.80
4273;BME280;63887;53.656;9.810;2022-11-15T06:30:45;101110.47;;;6.61;92.50
4273;BME280;63887;53.656;9.810;2022-11-15T06:33:11;101106.75;;;6.68;92.23
4273;BME280;63887;53.656;9.810;2022-11-15T06:35:39;101108.31;;;6.73;92.13
4273;BME280;63887;53.656;9.810;2022-11-15T06:38:07;101107.38;;;6.76;91.38
4273;BME280;63887;53.656;9.810;2022-11-15T06:40:35;101106.41;;;6.78;92.23
4273;BME280;63887;53.656;9.810;2022-11-15T06:43:02;101109.06;;;6.77;92.32
4273;BME280;63887;53.656;9.810;2022-11-15T06:45:29;101110.72;;;6.79;91.84
4273;BME280;63887;53.656;9.810;2022-11-15T06:47:56;101112.41;;;6.80;92.30
4273;BME280;63887;53.656;9.810;2022-11-15T06:50:22;101112.97;;;6.90;92.24
4273;BME280;63887;53.656;9.810;2022-11-15T06:52:50;101109.72;;;6.83;92.52
4273;BME280;63887;53.656;9.810;2022-11-15T06:55:17;101106.56;;;7.00;92.05
4273;BME280;63887;53.656;9.810;2022-11-15T06:57:47;101109.09;;;7.02;91.55
4273;BME280;63887;53.656;9.810;2022-11-15T07:00:15;101113.56;;;6.98;91.41
4273;BME280;63887;53.656;9.810;2022-11-15T07:02:42;101114.25;;;7.03;92.08
4273;BME280;63887;53.656;9.810;2022-11-15T07:05:08;101122.84;;;7.07;91.33
4273;BME280;63887;53.656;9.810;2022-11-15T07:07:35;101121.63;;;7.17;92.01
4273;BME280;63887;53.656;9.810;2022-11-15T07:10:03;101127.41;;;7.25;90.88
4273;BME280;63887;53.656;9.810;2022-11-15T07:12:30;101128.47;;;7.20;91.57
4273;BME280;63887;53.656;9.810;2022-11-15T07:14:56;101126.59;;;7.23;91.29
4273;BME280;63887;53.656;9.810;2022-11-15T07:17:23;101132.69;;;7.24;91.26
4273;BME280;63887;53.656;9.810;2022-11-15T07:19:49;101133.34;;;7.30;90.95
4273;BME280;63887;53.656;9.810;2022-11-15T07:22:15;101136.75;;;7.32;91.27
4273;BME280;63887;53.656;9.810;2022-11-15T07:24:42;101133.59;;;7.47;90.80
4273;BME280;63887;53.656;9.810;2022-11-15T07:27:10;101130.97;;;7.47;91.34
4273;BME280;63887;53.656;9.810;2022-11-15T07:29:36;101124.59;;;7.55;90.60
4273;BME280;63887;53.656;9.810;2022-11-15T07:32:03;101129.94;;;7.52;91.53
4273;BME280;63887;53.656;9.810;2022-11-15T07:34:29;101140.97;;;7.60;90.62
4273;BME280;63887;53.656;9.810;2022-11-15T07:36:56;101137.41;;;7.62;90.85
4273;BME280;63887;53.656;9.810;2022-11-15T07:39:22;101130.75;;;7.54;91.88
4273;BME280;63887;53.656;9.810;2022-11-15T07:41:49;101128.59;;;7.65;90.71
4273;BME280;63887;53.656;9.810;2022-11-15T07:44:36;101124.00;;;7.71;90.78
4273;BME280;63887;53.656;9.810;2022-11-15T07:47:03;101114.34;;;7.73;90.53
4273;BME280;63887;53.656;9.810;2022-11-15T07:49:29;101117.00;;;7.72;91.11
4273;BME280;63887;53.656;9.810;2022-11-15T07:51:56;101121.22;;;7.76;91.21
4273;BME280;63887;53.656;9.810;2022-11-15T07:54:22;101121.00;;;7.82;90.42
4273;BME280;63887;53.656;9.810;2022-11-15T07:56:49;101127.91;;;7.83;90.51
4273;BME280;63887;53.656;9.810;2022-11-15T07:59:15;101117.28;;;7.88;89.85
4273;BME280;63887;53.656;9.810;2022-11-15T08:01:43;101121.31;;;7.96;89.87
4273;BME280;63887;53.656;9.810;2022-11-15T08:04:10;101119.69;;;7.94;89.92
4273;BME280;63887;53.656;9.810;2022-11-15T08:06:36;101120.53;;;7.94;90.24
4273;BME280;63887;53.656;9.810;2022-11-15T08:09:03;101123.16;;;7.94;90.10
4273;BME280;63887;53.656;9.810;2022-11-15T08:11:30;101120.34;;;7.99;90.31
4273;BME280;63887;53.656;9.810;2022-11-15T08:13:56;101126.28;;;8.04;89.74
4273;BME280;63887;53.656;9.810;2022-11-15T08:16:22;101121.03;;;8.04;90.33
4273;BME280;63887;53.656;9.810;2022-11-15T08:18:50;101127.91;;;8.06;89.65
4273;BME280;63887;53.656;9.810;2022-11-15T08:21:18;101124.81;;;8.19;89.01
4273;BME280;63887;53.656;9.810;2022-11-15T08:23:45;101123.78;;;8.23;89.60
4273;BME280;63887;53.656;9.810;2022-11-15T08:26:12;101123.72;;;8.24;89.43
4273;BME280;63887;53.656;9.810;2022-11-15T08:28:39;101121.78;;;8.29;89.03
4273;BME280;63887;53.656;9.810;2022-11-15T08:31:06;101123.22;;;8.38;88.63
4273;BME280;63887;53.656;9.810;2022-11-15T08:33:33;101126.88;;;8.34;89.06
4273;BME280;63887;53.656;9.810;2022-11-15T08:36:00;101114.25;;;8.44;88.67
4273;BME280;63887;53.656;9.810;2022-11-15T08:38:27;101115.84;;;8.48;88.12
4273;BME280;63887;53.656;9.810;2022-11-15T08:40:59;101122.97;;;8.44;87.46
4273;BME280;63887;53.656;9.810;2022-11-15T08:43:27;101118.03;;;8.58;87.90
4273;BME280;63887;53.656;9.810;2022-11-15T08:45:55;101116.47;;;8.54;88.13
4273;BME280;63887;53.656;9.810;2022-11-15T08:48:22;101126.91;;;8.54;87.92
4273;BME280;63887;53.656;9.810;2022-11-15T08:50:49;101115.25;;;8.63;87.93
4273;BME280;63887;53.656;9.810;2022-11-15T08:53:16;101121.13;;;8.68;87.95
4273;BME280;63887;53.656;9.810;2022-11-15T08:55:43;101123.47;;;8.74;87.18
4273;BME280;63887;53.656;9.810;2022-11-15T08:58:09;101122.19;;;8.84;86.86
4273;BME280;63887;53.656;9.810;2022-11-15T09:00:36;101123.34;;;8.77;87.36
4273;BME280;63887;53.656;9.810;2022-11-15T09:03:03;101127.44;;;8.84;86.52
4273;BME280;63887;53.656;9.810;2022-11-15T09:05:30;101130.34;;;8.77;87.12
4273;BME280;63887;53.656;9.810;2022-11-15T09:07:57;101128.72;;;8.74;87.51
4273;BME280;63887;53.656;9.810;2022-11-15T09:10:24;101139.72;;;8.60;87.08
4273;BME280;63887;53.656;9.810;2022-11-15T09:12:51;101139.50;;;8.66;86.70
4273;BME280;63887;53.656;9.810;2022-11-15T09:15:18;101125.75;;;8.61;87.53
4273;BME280;63887;53.656;9.810;2022-11-15T09:17:44;101127.75;;;8.55;87.90
4273;BME280;63887;53.656;9.810;2022-11-15T09:20:11;101125.16;;;8.55;87.98
4273;BME280;63887;53.656;9.810;2022-11-15T09:22:37;101126.28;;;8.70;87.20
4273;BME280;63887;53.656;9.810;2022-11-15T09:25:05;101121.34;;;8.62;87.94
4273;BME280;63887;53.656;9.810;2022-11-15T09:27:33;101127.34;;;8.65;87.50
4273;BME280;63887;53.656;9.810;2022-11-15T09:30:00;101121.13;;;8.68;87.29
4273;BME280;63887;53.656;9.810;2022-11-15T09:32:28;101119.28;;;8.70;87.21
4273;BME280;63887;53.656;9.810;2022-11-15T09:34:55;101129.66;;;8.93;85.94
4273;BME280;63887;53.656;9.810;2022-11-15T09:37:21;101123.31;;;8.99;86.09
4273;BME280;63887;53.656;9.810;2022-11-15T09:39:48;101126.72;;;9.01;86.00
4273;BME280;63887;53.656;9.810;2022-11-15T09:42:45;101131.94;;;9.01;86.27
4273;BME280;63887;53.656;9.810;2022-11-15T09:45:19;101121.75;;;9.15;86.13
4273;BME280;63887;53.656;9.810;2022-11-15T09:47:58;101131.63;;;9.29;85.21
4273;BME280;63887;53.656;9.810;2022-11-15T09:50:31;101144.50;;;9.34;85.16
4273;BME280;63887;53.656;9.810;2022-11-15T09:53:00;101134.13;;;9.51;84.71
4273;BME280;63887;53.656;9.810;2022-11-15T09:55:34;101134.09;;;9.52;84.79
4273;BME280;63887;53.656;9.810;2022-11-15T09:58:07;101132.34;;;9.72;83.81
4273;BME280;63887;53.656;9.810;2022-11-15T10:00:38;101132.97;;;9.77;82.93
4273;BME280;63887;53.656;9.810;2022-11-15T10:03:12;101135.81;;;9.53;84.21
4273;BME280;63887;53.656;9.810;2022-11-15T10:05:40;101124.97;;;9.61;83.75
4273;BME280;63887;53.656;9.810;2022-11-15T10:08:16;101130.38;;;9.77;82.99
4273;BME280;63887;53.656;9.810;2022-11-15T10:10:49;101131.69;;;9.67;84.13
4273;BME280;63887;53.656;9.810;2022-11-15T10:13:21;101129.88;;;9.69;83.74
4273;BME280;63887;53.656;9.810;2022-11-15T10:15:49;101126.53;;;9.65;84.53
4273;BME280;63887;53.656;9.810;2022-11-15T10:18:19;101125.88;;;9.60;84.92
4273;BME280;63887;53.656;9.810;2022-11-15T10:20:55;101120.88;;;9.55;85.08
4273;BME280;63887;53.656;9.810;2022-11-15T10:23:24;101122.09;;;9.67;84.70
4273;BME280;63887;53.656;9.810;2022-11-15T10:25:52;101115.25;;;9.63;84.95
4273;BME280;63887;53.656;9.810;2022-11-15T10:28:26;101105.56;;;9.65;85.12
4273;BME280;63887;53.656;9.810;2022-11-15T10:30:54;101114.72;;;9.75;84.78
4273;BME280;63887;53.656;9.810;2022-11-15T10:33:26;101112.03;;;9.77;84.37
4273;BME280;63887;53.656;9.810;2022-11-15T10:36:20;101111.53;;;9.69;85.56
4273;BME280;63887;53.656;9.810;2022-11-15T10:38:55;101108.28;;;9.82;84.27
4273;BME280;63887;53.656;9.810;2022-11-15T10:41:28;101105.31;;;9.71;84.95
4273;BME280;63887;53.656;9.810;2022-11-15T10:44:17;101095.75;;;9.70;84.65
4273;BME280;63887;53.656;9.810;2022-11-15T10:46:46;101096.47;;;9.74;84.66
4273;BME280;63887;53.656;9.810;2022-11-15T10:49:16;101097.44;;;9.71;84.58
4273;BME280;63887;53.656;9.810;2022-11-15T10:51:45;101094.34;;;9.82;84.18
4273;BME280;63887;53.656;9.810;2022-11-15T10:54:16;101087.25;;;9.84;84.14
4273;BME280;63887;53.656;9.810;2022-11-15T10:56:49;101087.34;;;9.82;84.75
4273;BME280;63887;53.656;9.810;2022-11-15T10:59:23;101089.66;;;9.89;84.74
4273;BME280;63887;53.656;9.810;2022-11-15T11:01:50;101084.19;;;9.93;84.48
4273;BME280;63887;53.656;9.810;2022-11-15T11:04:16;101085.63;;;10.00;83.90
4273;BME280;63887;53.656;9.810;2022-11-15T11:06:48;101086.19;;;9.88;84.77
4273;BME280;63887;53.656;9.810;2022-11-15T11:09:30;101077.56;;;9.86;84.77
4273;BME280;63887;53.656;9.810;2022-11-15T11:11:58;101075.13;;;10.00;84.33
4273;BME280;63887;53.656;9.810;2022-11-15T11:14:29;101069.16;;;9.97;84.30
4273;BME280;63887;53.656;9.810;2022-11-15T11:17:02;101068.06;;;10.02;84.07
4273;BME280;63887;53.656;9.810;2022-11-15T11:19:39;101070.38;;;10.08;84.47
4273;BME280;63887;53.656;9.810;2022-11-15T11:22:17;101066.28;;;10.03;84.22
4273;BME280;63887;53.656;9.810;2022-11-15T11:24:53;101061.75;;;10.06;84.24
4273;BME280;63887;53.656;9.810;2022-11-15T11:27:34;101061.03;;;10.03;84.77
4273;BME280;63887;53.656;9.810;2022-11-15T11:30:09;101058.41;;;10.03;84.41
4273;BME280;63887;53.656;9.810;2022-11-15T11:32:49;101056.41;;;10.08;84.99
4273;BME280;63887;53.656;9.810;2022-11-15T11:35:20;101052.75;;;10.12;84.82
4273;BME280;63887;53.656;9.810;2022-11-15T11:37:50;101040.41;;;10.14;84.83
4273;BME280;63887;53.656;9.810;2022-11-15T11:40:27;101040.41;;;10.14;84.97
4273;BME280;63887;53.656;9.810;2022-11-15T11:42:59;101039.97;;;10.23;84.13
4273;BME280;63887;53.656;9.810;2022-11-15T11:45:49;101035.50;;;10.25;84.26
4273;BME280;63887;53.656;9.810;2022-11-15T11:48:26;101031.38;;;10.56;82.85
4273;BME280;63887;53.656;9.810;2022-11-15T11:51:04;101032.09;;;10.59;83.09
4273;BME280;63887;53.656;9.810;2022-11-15T11:53:38;101026.53;;;10.65;83.20
4273;BME280;63887;53.656;9.810;2022-11-15T11:56:15;101029.47;;;10.59;83.13
4273;BME280;63887;53.656;9.810;2022-11-15T11:58:44;101022.22;;;10.47;83.89
4273;BME280;63887;53.656;9.810;2022-11-15T12:01:16;101018.56;;;10.50;83.51
4273;BME280;63887;53.656;9.810;2022-11-15T12:03:47;101015.78;;;10.53;83.57
4273;BME280;63887;53.656;9.810;2022-11-15T12:06:22;101018.56;;;10.50;83.48
4273;BME280;63887;53.656;9.810;2022-11-15T12:08:53;101012.78;;;10.60;82.87
4273;BME280;63887;53.656;9.810;2022-11-15T12:11:29;101005.69;;;10.62;83.20
4273;BME280;63887;53.656;9.810;2022-11-15T12:14:01;101004.25;;;10.57;83.70
4273;BME280;63887;53.656;9.810;2022-11-15T12:16:32;101006.78;;;10.58;83.79
4273;BME280;63887;53.656;9.810;2022-11-15T12:19:01;101008.00;;;10.68;83.21
4273;BME280;63887;53.656;9.810;2022-11-15T12:21:35;101009.06;;;10.82;82.86
4273;BME280;63887;53.656;9.810;2022-11-15T12:24:06;101011.84;;;10.79;83.25
4273;BME280;63887;53.656;9.810;2022-11-15T12:26:38;101007.53;;;10.78;83.23
4273;BME280;63887;53.656;9.810;2022-11-15T12:29:11;101006.28;;;10.85;82.95
4273;BME280;63887;53.656;9.810;2022-11-15T12:31:45;101002.38;;;10.76;82.63
4273;BME280;63887;53.656;9.810;2022-11-15T12:34:29;100999.88;;;10.90;82.23
4273;BME280;63887;53.656;9.810;2022-11-15T12:37:01;101001.56;;;10.91;81.96
4273;BME280;63887;53.656;9.810;2022-11-15T12:42:42;100991.47;;;10.84;83.03
4273;BME280;63887;53.656;9.810;2022-11-15T12:45:26;100986.06;;;10.87;82.82
4273;BME280;63887;53.656;9.810;2022-11-15T12:47:56;100995.47;;;10.91;83.06
4273;BME280;63887;53.656;9.810;2022-11-15T12:50:53;100986.06;;;10.87;82.51
4273;BME280;63887;53.656;9.810;2022-11-15T12:53:27;100982.53;;;10.88;82.97
4273;BME280;63887;53.656;9.810;2022-11-15T12:56:15;100984.31;;;10.87;82.72
4273;BME280;63887;53.656;9.810;2022-11-15T12:58:46;100981.44;;;10.92;82.62
4273;BME280;63887;53.656;9.810;2022-11-15T13:01:52;100977.03;;;10.92;83.08
4273;BME280;63887;53.656;9.810;2022-11-15T13:04:25;100962.75;;;11.14;81.72
4273;BME280;63887;53.656;9.810;2022-11-15T13:06:53;100967.25;;;11.12;82.30
4273;BME280;63887;53.656;9.810;2022-11-15T13:09:52;100962.16;;;11.09;82.09
4273;BME280;63887;53.656;9.810;2022-11-15T13:12:51;100959.44;;;11.10;82.41
4273;BME280;63887;53.656;9.810;2022-11-15T13:15:38;100955.47;;;11.03;82.51
4273;BME280;63887;53.656;9.810;2022-11-15T13:18:30;100956.44;;;11.18;81.77
4273;BME280;63887;53.656;9.810;2022-11-15T13:20:59;100955.03;;;11.11;81.71
4273;BME280;63887;53.656;9.810;2022-11-15T13:23:26;100952.16;;;11.15;81.62
4273;BME280;63887;53.656;9.810;2022-11-15T13:26:08;100946.78;;;11.18;82.14
4273;BME280;63887;53.656;9.810;2022-11-15T13:28:38;100937.50;;;11.11;82.40
4273;BME280;63887;53.656;9.810;2022-11-15T13:31:21;100944.38;;;11.14;82.18